Time;durP1;ratioP1;P1;durP2;ratioP2;P2;SDS_P1;SDS_P2;PMS_P1;PMS_P2;Temp;Humidity;BMP_temperature;BMP_pressure;BME280_temperature;BME280_humidity;BME280_pressure;Samples;Min_cycle;Max_cycle;Signal;HPM_P1;HPM_P2
2022/10/20 00:01:19;;;;;;;;;6.33;5.67;;;;;24.37;50.18;100983.69;5076927;27;45794;-72
2022/10/20 00:03:46;;;;;;;;;5.00;5.00;;;;;24.37;50.09;100989.81;5077695;27;45450;-72
2022/10/20 00:06:16;;;;;;;;;4.00;4.00;;;;;24.38;50.00;100998.63;5076892;27;45614;-72
2022/10/20 00:08:42;;;;;;;;;4.00;4.00;;;;;24.37;50.00;100992.47;5077102;27;45390;-72
2022/10/20 00:11:09;;;;;;;;;5.67;5.67;;;;;24.36;49.99;100988.16;5076654;27;45392;-72
2022/10/20 00:13:35;;;;;;;;;6.00;5.00;;;;;24.37;49.71;100984.50;5077031;27;45395;-72
2022/10/20 00:16:01;;;;;;;;;5.00;5.00;;;;;24.37;50.13;100984.50;5076966;27;45407;-72
2022/10/20 00:18:27;;;;;;;;;4.00;4.00;;;;;24.38;50.07;100974.69;5077244;27;45422;-72
2022/10/20 00:20:53;;;;;;;;;6.67;5.67;;;;;24.34;50.05;100970.75;5076564;27;45426;-72
2022/10/20 00:23:19;;;;;;;;;4.33;3.33;;;;;24.37;49.74;100965.88;5076765;27;45390;-72
2022/10/20 00:25:45;;;;;;;;;6.00;6.00;;;;;24.36;49.92;100956.25;5077258;27;45565;-72
2022/10/20 00:28:10;;;;;;;;;6.00;6.00;;;;;24.36;49.94;100961.56;5076132;27;46167;-72
2022/10/20 00:30:37;;;;;;;;;6.00;4.00;;;;;24.35;49.94;100937.84;5076855;27;45335;-72
2022/10/20 00:33:03;;;;;;;;;5.67;5.67;;;;;24.37;49.98;100936.63;5065654;27;45356;-72
2022/10/20 00:35:30;;;;;;;;;6.00;6.00;;;;;24.32;50.06;100912.47;5070719;27;45382;-73
2022/10/20 00:37:55;;;;;;;;;6.00;4.33;;;;;24.37;50.09;100917.19;5072967;27;46499;-72
2022/10/20 00:40:21;;;;;;;;;4.33;3.00;;;;;24.36;50.30;100937.63;5076578;27;45509;-72
2022/10/20 00:42:47;;;;;;;;;4.00;4.00;;;;;24.37;50.12;100946.44;5076329;27;45505;-72
2022/10/20 00:45:16;;;;;;;;;5.33;4.67;;;;;24.37;50.08;100954.44;5076533;27;45415;-72
2022/10/20 00:48:05;;;;;;;;;6.00;4.33;;;;;24.35;50.14;100970.59;5076475;27;45325;-72
2022/10/20 00:50:37;;;;;;;;;4.67;4.67;;;;;24.37;49.82;100971.22;5076200;27;45421;-72
2022/10/20 00:53:04;;;;;;;;;4.00;4.00;;;;;24.38;49.80;100961.41;5076687;27;45332;-72
2022/10/20 00:55:32;;;;;;;;;4.00;4.00;;;;;24.36;50.19;100928.84;5076469;27;45464;-72
2022/10/20 00:57:59;;;;;;;;;3.67;3.67;;;;;24.37;49.94;100933.16;5075954;27;45504;-73
2022/10/20 01:00:26;;;;;;;;;5.00;5.00;;;;;24.32;49.96;100931.09;5109259;27;45448;-72
2022/10/20 01:02:54;;;;;;;;;5.00;5.00;;;;;24.37;50.26;100933.97;5076121;27;45372;-72
2022/10/20 01:05:21;;;;;;;;;5.67;5.67;;;;;24.27;50.13;100923.69;5076310;27;45542;-72
2022/10/20 01:07:46;;;;;;;;;5.33;4.33;;;;;24.35;50.15;100936.03;5076042;27;45318;-72
2022/10/20 01:10:12;;;;;;;;;4.33;4.33;;;;;24.33;49.83;100924.72;5076048;27;45376;-72
2022/10/20 01:12:50;;;;;;;;;4.33;4.00;;;;;24.36;49.95;100919.03;5075899;27;45326;-72
2022/10/20 01:15:42;;;;;;;;;4.00;4.00;;;;;24.36;49.84;100919.03;5076374;27;45429;-72
2022/10/20 01:18:21;;;;;;;;;6.00;5.67;;;;;24.36;49.82;100915.53;5075649;27;46170;-72
2022/10/20 01:21:03;;;;;;;;;6.00;5.00;;;;;24.35;49.95;100928.03;5075770;27;45349;-72
2022/10/20 01:23:37;;;;;;;;;6.33;5.00;;;;;24.35;50.05;100943.16;5062165;27;45762;-72
2022/10/20 01:26:24;;;;;;;;;2.67;2.67;;;;;24.35;49.72;100944.00;5075608;28;45276;-72
2022/10/20 01:28:58;;;;;;;;;6.00;6.00;;;;;24.34;49.88;100936.19;5064068;28;46620;-72
2022/10/20 01:31:56;;;;;;;;;5.33;5.33;;;;;24.34;49.78;100934.34;5075511;27;45546;-72
2022/10/20 01:34:45;;;;;;;;;4.00;4.00;;;;;24.31;49.77;100949.88;5076058;27;45361;-72
2022/10/20 01:37:23;;;;;;;;;4.33;4.33;;;;;24.35;50.08;100949.31;5075611;27;45529;-72
2022/10/20 01:39:57;;;;;;;;;6.00;6.00;;;;;24.35;49.97;100938.69;5075144;27;47467;-73
2022/10/20 01:42:24;;;;;;;;;5.33;5.00;;;;;24.30;50.09;100922.47;5075714;27;45489;-73
2022/10/20 01:44:54;;;;;;;;;5.67;4.33;;;;;24.34;50.04;100934.34;5075811;27;45460;-72
2022/10/20 01:47:23;;;;;;;;;5.00;5.00;;;;;24.35;50.18;100929.88;5075540;27;45304;-72
2022/10/20 01:49:51;;;;;;;;;5.00;5.00;;;;;24.33;50.07;100916.75;5075540;27;46033;-72
2022/10/20 01:52:17;;;;;;;;;4.33;4.00;;;;;24.34;49.92;100909.59;5075504;27;45187;-72
2022/10/20 01:54:42;;;;;;;;;7.67;5.00;;;;;24.34;50.11;100907.78;5075237;28;45396;-72
2022/10/20 01:57:35;;;;;;;;;4.33;3.67;;;;;24.35;50.14;100904.09;5076203;27;45506;-72
2022/10/20 02:00:00;;;;;;;;;4.00;4.00;;;;;24.34;49.70;100902.47;5068184;27;45999;-73
2022/10/20 02:03:03;;;;;;;;;5.00;5.00;;;;;24.35;49.85;100914.75;5078910;27;45332;-72
2022/10/20 02:05:59;;;;;;;;;5.00;5.00;;;;;24.35;50.10;100908.59;5079173;27;45441;-72
2022/10/20 02:08:46;;;;;;;;;5.00;5.00;;;;;24.35;49.91;100908.59;5067586;27;45267;-73
2022/10/20 02:11:24;;;;;;;;;5.00;3.67;;;;;24.34;49.98;100907.78;5078714;27;45532;-72
2022/10/20 02:13:51;;;;;;;;;3.67;3.67;;;;;24.35;49.98;100917.41;5078892;27;45378;-73
2022/10/20 02:16:26;;;;;;;;;4.00;4.00;;;;;24.35;50.04;100925.38;5078936;27;45362;-72
2022/10/20 02:18:52;;;;;;;;;4.00;4.00;;;;;24.28;49.95;100905.88;5078945;27;45438;-72
2022/10/20 02:21:18;;;;;;;;;5.00;5.00;;;;;24.34;49.91;100909.59;5078344;27;46137;-73
2022/10/20 02:23:48;;;;;;;;;5.00;5.00;;;;;24.35;49.99;100921.91;5078674;27;45690;-72
2022/10/20 02:26:16;;;;;;;;;3.00;3.00;;;;;24.31;50.20;100905.50;5078859;27;45406;-72
2022/10/20 02:28:47;;;;;;;;;5.00;5.00;;;;;24.35;49.98;100897.97;5078636;27;45291;-72
2022/10/20 02:31:12;;;;;;;;;4.00;4.00;;;;;24.29;49.99;100889.75;5078579;27;46267;-73
2022/10/20 02:33:39;;;;;;;;;4.00;4.00;;;;;24.35;49.95;100885.50;5064337;27;45477;-72
2022/10/20 02:36:14;;;;;;;;;7.33;4.67;;;;;24.35;50.14;100900.63;5078999;27;45471;-73
2022/10/20 02:38:39;;;;;;;;;5.00;3.33;;;;;24.35;49.87;100911.25;5077927;27;45429;-72
2022/10/20 02:41:05;;;;;;;;;6.33;6.00;;;;;24.33;49.99;100895.47;5078757;27;46215;-73
2022/10/20 02:43:30;;;;;;;;;4.00;4.00;;;;;24.34;49.84;100902.47;5078586;27;45328;-72
2022/10/20 02:45:55;;;;;;;;;6.67;3.67;;;;;24.34;50.08;100894.47;5078429;27;45568;-73
2022/10/20 02:48:21;;;;;;;;;5.00;4.33;;;;;24.34;50.03;100889.16;5078835;27;45491;-72
2022/10/20 02:50:46;;;;;;;;;4.67;4.00;;;;;24.34;49.97;100893.66;5077963;27;45974;-73
2022/10/20 02:53:11;;;;;;;;;4.67;4.00;;;;;24.33;49.92;100892.81;5077815;27;46835;-72
2022/10/20 02:55:36;;;;;;;;;5.00;5.00;;;;;24.35;49.87;100903.28;5078555;27;45248;-72
2022/10/20 02:58:02;;;;;;;;;6.00;5.00;;;;;24.33;49.76;100903.47;5077991;27;53192;-72
2022/10/20 03:00:29;;;;;;;;;4.33;4.33;;;;;24.33;50.00;100900.78;5078210;27;46160;-73
2022/10/20 03:02:55;;;;;;;;;4.00;4.00;;;;;24.28;50.18;100897.91;5078295;27;45336;-72
2022/10/20 03:05:21;;;;;;;;;4.67;4.67;;;;;24.33;50.00;100922.06;5078116;27;45341;-73
2022/10/20 03:07:46;;;;;;;;;5.00;5.00;;;;;24.34;49.74;100931.69;5077894;27;45530;-72
2022/10/20 03:10:11;;;;;;;;;5.00;5.00;;;;;24.34;50.00;100921.06;5075171;27;47392;-72
2022/10/20 03:12:37;;;;;;;;;4.67;4.67;;;;;24.33;50.01;100922.06;5077908;27;45360;-73
2022/10/20 03:15:03;;;;;;;;;5.67;4.67;;;;;24.23;50.08;100916.25;5078551;27;45330;-72
2022/10/20 03:17:28;;;;;;;;;5.00;4.00;;;;;24.33;50.01;100930.03;5077995;27;45446;-72
2022/10/20 03:19:53;;;;;;;;;4.00;4.00;;;;;24.34;49.93;100937.03;5077615;27;45976;-72
2022/10/20 03:22:18;;;;;;;;;5.00;5.00;;;;;24.34;50.10;100931.69;5077512;27;49954;-72
2022/10/20 03:24:44;;;;;;;;;4.00;4.00;;;;;24.33;49.83;100923.94;5077628;27;46005;-72
2022/10/20 03:27:09;;;;;;;;;3.33;3.00;;;;;24.30;49.82;100919.81;5078257;27;45482;-73
2022/10/20 03:29:34;;;;;;;;;6.67;6.67;;;;;24.34;49.84;100918.41;5063596;27;47187;-73
2022/10/20 03:32:00;;;;;;;;;4.67;4.33;;;;;24.35;49.73;100914.75;5075008;27;45482;-72
2022/10/20 03:34:25;;;;;;;;;5.33;4.33;;;;;24.34;49.96;100926.38;5066441;28;45454;-72
2022/10/20 03:36:51;;;;;;;;;6.33;5.00;;;;;24.34;50.00;100913.09;5077360;27;45437;-72
2022/10/20 03:39:16;;;;;;;;;4.00;4.00;;;;;24.35;50.13;100911.25;5077463;27;46007;-73
2022/10/20 03:41:41;;;;;;;;;3.00;3.00;;;;;24.35;49.82;100911.25;5077805;27;45385;-72
2022/10/20 03:44:09;;;;;;;;;3.67;3.67;;;;;24.35;49.94;100912.09;5077702;27;45327;-72
2022/10/20 03:46:34;;;;;;;;;5.00;5.00;;;;;24.34;49.98;100905.13;5077727;27;45373;-72
2022/10/20 03:48:59;;;;;;;;;3.00;3.00;;;;;24.35;49.87;100890.00;5077424;27;45375;-73
2022/10/20 03:51:25;;;;;;;;;4.67;4.33;;;;;24.34;49.84;100891.81;5077273;27;45406;-72
2022/10/20 03:53:50;;;;;;;;;4.00;4.00;;;;;24.34;49.99;100878.53;5077657;27;45353;-72
2022/10/20 03:56:18;;;;;;;;;4.00;4.00;;;;;24.29;49.83;100863.16;5077762;27;45414;-72
2022/10/20 03:58:43;;;;;;;;;3.33;3.33;;;;;24.33;50.12;100874.22;5077471;27;46345;-72
2022/10/20 04:01:15;;;;;;;;;4.00;4.00;;;;;24.34;50.08;100867.88;5077228;27;45427;-72
2022/10/20 04:03:41;;;;;;;;;5.67;3.33;;;;;24.34;49.65;100865.22;5077718;27;45323;-72
2022/10/20 04:06:06;;;;;;;;;4.33;4.00;;;;;24.34;50.00;100865.22;5076581;27;45358;-72
2022/10/20 04:08:32;;;;;;;;;4.00;4.00;;;;;24.34;49.97;100854.59;5077304;27;46149;-72
2022/10/20 04:10:57;;;;;;;;;4.67;4.67;;;;;24.33;50.01;100844.97;5077065;27;45489;-72
2022/10/20 04:13:23;;;;;;;;;3.00;3.00;;;;;24.33;49.97;100847.63;5077286;27;45662;-72
2022/10/20 04:15:48;;;;;;;;;4.33;4.33;;;;;24.33;49.92;100852.94;5077207;27;45405;-72
2022/10/20 04:18:13;;;;;;;;;4.00;3.67;;;;;24.33;49.98;100857.47;5076924;27;45590;-72
2022/10/20 04:20:39;;;;;;;;;4.00;4.00;;;;;24.32;49.89;100856.63;5075943;27;45457;-73
2022/10/20 04:23:04;;;;;;;;;4.33;4.33;;;;;24.33;50.17;100858.25;5076916;27;46346;-72
2022/10/20 04:25:29;;;;;;;;;5.67;4.33;;;;;24.34;50.04;100867.06;5077202;27;45403;-72
2022/10/20 04:27:55;;;;;;;;;5.00;4.33;;;;;24.33;50.00;100868.91;5076636;27;45472;-72
2022/10/20 04:30:20;;;;;;;;;4.67;4.67;;;;;24.34;49.99;100872.38;5076905;27;45448;-72
2022/10/20 04:32:45;;;;;;;;;5.00;3.67;;;;;24.33;49.99;100871.56;5067845;27;45553;-72
2022/10/20 04:35:11;;;;;;;;;5.00;4.00;;;;;24.34;49.93;100864.41;5071078;27;45411;-73
2022/10/20 04:37:36;;;;;;;;;6.00;5.00;;;;;24.34;50.05;100869.72;5076506;27;46009;-73
2022/10/20 04:40:02;;;;;;;;;4.00;4.00;;;;;24.33;50.20;100866.22;5076679;27;45572;-72
2022/10/20 04:42:27;;;;;;;;;5.33;4.00;;;;;24.33;49.96;100868.09;5076709;27;45370;-72
2022/10/20 04:44:52;;;;;;;;;4.00;4.00;;;;;24.26;50.09;100860.88;5076644;27;46781;-72
2022/10/20 04:47:18;;;;;;;;;5.00;5.00;;;;;24.21;50.21;100862.44;5076132;27;48838;-72
2022/10/20 04:49:43;;;;;;;;;4.67;3.00;;;;;24.30;50.11;100877.28;5076180;27;45338;-73
2022/10/20 04:52:09;;;;;;;;;6.33;4.33;;;;;24.34;49.75;100878.53;5074934;28;46849;-73
2022/10/20 04:54:34;;;;;;;;;5.00;4.00;;;;;24.33;49.99;100876.88;5076426;27;45396;-72
2022/10/20 04:56:59;;;;;;;;;5.00;4.00;;;;;24.34;50.08;100870.56;5092148;27;46110;-72
2022/10/20 04:59:25;;;;;;;;;3.00;3.00;;;;;24.35;50.19;100868.72;5076229;27;45543;-72
2022/10/20 05:01:50;;;;;;;;;5.67;5.67;;;;;24.32;49.96;100861.94;5076419;27;45295;-73
2022/10/20 05:04:20;;;;;;;;;6.00;5.00;;;;;24.29;50.25;100849.88;5075985;27;45324;-73
2022/10/20 05:06:47;;;;;;;;;3.00;3.00;;;;;24.35;50.11;100855.41;5076230;27;46068;-72
2022/10/20 05:09:13;;;;;;;;;5.33;5.33;;;;;24.35;50.04;100856.25;5076040;27;45375;-73
2022/10/20 05:11:38;;;;;;;;;7.00;6.33;;;;;24.28;49.85;100834.09;5076270;27;45245;-72
2022/10/20 05:14:04;;;;;;;;;4.00;4.00;;;;;24.34;50.12;100843.97;5063186;27;45218;-72
2022/10/20 05:16:29;;;;;;;;;5.00;5.00;;;;;24.34;49.91;100833.31;5074664;28;45806;-72
2022/10/20 05:18:56;;;;;;;;;4.67;3.33;;;;;24.35;50.02;100828.84;5075948;27;45339;-72
2022/10/20 05:21:24;;;;;;;;;5.00;3.33;;;;;24.34;50.13;100828.00;5075642;27;45279;-72
2022/10/20 05:23:55;;;;;;;;;5.33;5.33;;;;;24.34;49.85;100813.88;5076084;27;45465;-72
2022/10/20 05:26:20;;;;;;;;;3.67;3.67;;;;;24.34;50.19;100805.91;5075815;27;46236;-73
2022/10/20 05:28:49;;;;;;;;;5.33;4.00;;;;;24.35;50.06;100807.56;5075938;27;45348;-72
2022/10/20 05:31:15;;;;;;;;;3.67;3.67;;;;;24.26;50.27;100793.56;5075771;27;45369;-72
2022/10/20 05:33:46;;;;;;;;;4.00;4.00;;;;;24.34;50.08;100795.28;5060551;27;45316;-72
2022/10/20 05:36:15;;;;;;;;;6.00;3.67;;;;;24.25;49.90;100779.44;5075508;27;46524;-72
2022/10/20 05:38:40;;;;;;;;;4.67;4.67;;;;;24.34;49.93;100787.28;5075343;27;45416;-73
2022/10/20 05:41:10;;;;;;;;;5.00;3.67;;;;;24.34;50.05;100776.66;5075970;27;45746;-72
2022/10/20 05:43:35;;;;;;;;;3.67;3.67;;;;;24.34;50.03;100771.34;5075771;27;45473;-73
2022/10/20 05:46:01;;;;;;;;;4.00;4.00;;;;;24.33;49.69;100754.56;5075230;27;46936;-73
2022/10/20 05:48:27;;;;;;;;;5.00;5.00;;;;;24.21;50.10;100729.53;5075442;27;45376;-73
2022/10/20 05:50:52;;;;;;;;;4.00;4.00;;;;;24.33;50.07;100743.94;5075524;27;45305;-72
2022/10/20 05:53:18;;;;;;;;;4.00;4.00;;;;;24.29;49.85;100716.09;5075605;27;45481;-72
2022/10/20 05:55:43;;;;;;;;;4.00;4.00;;;;;24.33;50.07;100714.69;5075395;27;46283;-72
2022/10/20 05:58:09;;;;;;;;;4.00;4.00;;;;;24.33;49.93;100737.81;5075219;27;50661;-73
2022/10/20 06:00:40;;;;;;;;;4.33;3.33;;;;;24.33;49.88;100735.94;5075669;27;45590;-73
2022/10/20 06:03:07;;;;;;;;;3.00;2.33;;;;;24.28;50.05;100717.94;5075758;27;45239;-74
2022/10/20 06:05:32;;;;;;;;;4.00;4.00;;;;;24.33;49.94;100725.31;5075031;27;46378;-71
2022/10/20 06:07:57;;;;;;;;;2.67;2.67;;;;;24.34;50.29;100760.72;5075117;27;45643;-70
2022/10/20 06:10:23;;;;;;;;;4.33;4.33;;;;;24.35;50.19;100768.50;5075606;27;45421;-70
2022/10/20 06:12:48;;;;;;;;;6.33;5.00;;;;;24.36;50.41;100774.63;5075233;27;45523;-70
2022/10/20 06:15:14;;;;;;;;;6.00;5.00;;;;;24.35;49.89;100771.16;5074833;27;46262;-70
2022/10/20 06:17:39;;;;;;;;;3.67;3.00;;;;;24.35;50.17;100773.81;5075034;27;45426;-71
2022/10/20 06:20:05;;;;;;;;;4.00;4.00;;;;;24.36;49.92;100777.28;5074987;28;45479;-70
2022/10/20 06:22:30;;;;;;;;;5.00;4.00;;;;;24.36;50.14;100780.75;5075323;27;45707;-71
2022/10/20 06:24:55;;;;;;;;;4.33;4.33;;;;;24.36;50.17;100786.09;5074775;27;53884;-71
2022/10/20 06:27:21;;;;;;;;;5.00;5.00;;;;;24.37;49.86;100786.91;5075058;27;45702;-70
2022/10/20 06:29:46;;;;;;;;;3.33;3.33;;;;;24.37;50.25;100786.91;5074822;27;45430;-71
2022/10/20 06:32:11;;;;;;;;;6.00;6.00;;;;;24.37;50.13;100786.91;5070869;27;45537;-71
2022/10/20 06:34:37;;;;;;;;;4.67;4.67;;;;;24.37;50.16;100792.22;5064676;27;46238;-73
2022/10/20 06:37:02;;;;;;;;;4.00;4.00;;;;;24.36;50.36;100787.91;5075004;27;45512;-73
2022/10/20 06:39:27;;;;;;;;;4.67;4.67;;;;;24.38;50.17;100791.22;5075035;27;45525;-73
2022/10/20 06:41:53;;;;;;;;;8.00;5.00;;;;;24.38;50.26;100796.53;5075192;27;45375;-73
2022/10/20 06:44:21;;;;;;;;;3.00;3.00;;;;;24.37;50.21;100789.56;5076753;27;46007;-73
2022/10/20 06:46:46;;;;;;;;;3.67;3.67;;;;;24.35;50.41;100779.13;5078438;27;45509;-73
2022/10/20 06:49:12;;;;;;;;;4.00;4.00;;;;;24.37;50.41;100779.75;5078436;27;45689;-73
2022/10/20 06:51:38;;;;;;;;;4.00;4.00;;;;;24.31;50.24;100777.06;5078557;27;45431;-73
2022/10/20 06:54:04;;;;;;;;;4.33;4.33;;;;;24.34;50.10;100777.47;5078039;27;46160;-73
2022/10/20 06:56:32;;;;;;;;;4.00;4.00;;;;;24.36;50.05;100778.09;5078336;27;45481;-73
2022/10/20 06:58:58;;;;;;;;;4.00;4.00;;;;;24.37;50.48;100784.25;5077930;27;45370;-73
2022/10/20 07:01:27;;;;;;;;;5.00;4.00;;;;;24.37;50.21;100781.59;5078180;27;45303;-72
2022/10/20 07:03:55;;;;;;;;;5.00;4.67;;;;;24.37;50.26;100790.41;5077989;27;47998;-73
2022/10/20 07:06:29;;;;;;;;;3.00;3.00;;;;;24.38;50.34;100793.88;5076604;27;45400;-72
2022/10/20 07:08:55;;;;;;;;;6.00;5.00;;;;;24.37;50.12;100798.38;5078259;27;45361;-73
2022/10/20 07:11:23;;;;;;;;;3.00;3.00;;;;;24.37;50.19;100803.69;5077764;27;45527;-73
2022/10/20 07:13:49;;;;;;;;;2.33;1.67;;;;;24.34;50.13;100792.63;5077522;27;46191;-72
2022/10/20 07:16:17;;;;;;;;;4.00;4.00;;;;;24.29;50.15;100794.03;5077834;27;45639;-72
2022/10/20 07:18:43;;;;;;;;;4.00;3.00;;;;;24.39;50.09;100798.16;5078180;27;45634;-73
2022/10/20 07:21:12;;;;;;;;;4.00;4.00;;;;;24.39;50.30;100792.84;5077646;27;45359;-73
2022/10/20 07:23:38;;;;;;;;;4.00;4.00;;;;;24.31;49.95;100779.72;5077961;27;45310;-73
2022/10/20 07:26:07;;;;;;;;;4.00;4.00;;;;;24.40;50.33;100807.78;5077752;27;45375;-73
2022/10/20 07:28:33;;;;;;;;;4.67;4.00;;;;;24.45;50.18;100817.81;5077526;27;45384;-73
2022/10/20 07:31:09;;;;;;;;;3.67;3.67;;;;;24.47;50.28;100816.63;5078047;27;45391;-73
2022/10/20 07:33:35;;;;;;;;;4.00;3.00;;;;;24.51;50.09;100820.50;5063099;27;48339;-73
2022/10/20 07:36:00;;;;;;;;;4.00;4.00;;;;;24.54;50.19;100813.97;5077723;27;45476;-73
2022/10/20 07:38:26;;;;;;;;;3.00;3.00;;;;;24.60;50.05;100825.66;5093490;27;45495;-73
2022/10/20 07:40:52;;;;;;;;;6.67;5.33;;;;;24.63;50.15;100823.44;5077509;27;45383;-72
2022/10/20 07:43:17;;;;;;;;;4.67;4.00;;;;;24.67;49.79;100821.19;5077200;27;46290;-73
2022/10/20 07:45:43;;;;;;;;;4.67;4.67;;;;;24.67;49.96;100820.38;5076047;27;45506;-72
2022/10/20 07:48:08;;;;;;;;;3.00;3.00;;;;;24.77;49.77;100834.13;5077837;27;45319;-73
2022/10/20 07:50:35;;;;;;;;;4.33;4.33;;;;;24.84;49.78;100837.63;5077508;27;45415;-73
2022/10/20 07:53:00;;;;;;;;;5.67;4.67;;;;;24.92;49.48;100822.50;5077610;27;45360;-73
2022/10/20 07:55:25;;;;;;;;;2.33;2.33;;;;;25.00;49.28;100818.84;5076468;27;45304;-72
2022/10/20 07:57:51;;;;;;;;;4.00;4.00;;;;;25.05;49.08;100825.25;5077110;27;45245;-73
2022/10/20 08:00:16;;;;;;;;;5.67;4.00;;;;;25.12;49.00;100824.41;5077498;27;45288;-73
2022/10/20 08:02:41;;;;;;;;;3.00;3.00;;;;;25.16;49.00;100815.81;5077105;27;45332;-73
2022/10/20 08:05:08;;;;;;;;;3.67;3.67;;;;;25.25;48.83;100824.44;5077329;27;45328;-73
2022/10/20 08:07:34;;;;;;;;;4.00;4.00;;;;;25.31;48.72;100822.81;5077062;27;45361;-73
2022/10/20 08:09:59;;;;;;;;;4.33;4.33;;;;;25.37;48.66;100822.00;5077192;27;45429;-73
2022/10/20 08:12:25;;;;;;;;;3.00;3.00;;;;;25.43;48.54;100825.69;5076939;27;45998;-72
2022/10/20 08:14:50;;;;;;;;;3.33;3.00;;;;;25.48;48.59;100817.91;5077019;27;45370;-73
2022/10/20 08:17:17;;;;;;;;;4.00;4.00;;;;;25.51;48.61;100825.50;5077329;27;45331;-73
2022/10/20 08:19:43;;;;;;;;;6.67;5.67;;;;;25.52;48.25;100818.31;5092415;27;45458;-73
2022/10/20 08:22:08;;;;;;;;;3.67;3.67;;;;;25.53;48.36;100822.59;5076977;27;46071;-73
2022/10/20 08:24:33;;;;;;;;;7.33;4.00;;;;;25.50;48.62;100821.19;5076817;27;45182;-73
2022/10/20 08:27:00;;;;;;;;;3.33;3.33;;;;;25.42;48.52;100808.09;5076888;27;45708;-73
2022/10/20 08:29:25;;;;;;;;;5.00;4.00;;;;;25.48;48.17;100819.75;5063714;27;45307;-73
2022/10/20 08:31:50;;;;;;;;;3.33;3.33;;;;;25.45;48.29;100817.50;5075473;27;47389;-73
2022/10/20 08:34:16;;;;;;;;;3.00;3.00;;;;;25.42;48.46;100815.25;5076781;27;45284;-73
2022/10/20 08:36:41;;;;;;;;;2.00;2.00;;;;;25.38;48.26;100809.50;5076433;27;45334;-73
2022/10/20 08:39:06;;;;;;;;;4.00;3.00;;;;;25.34;48.41;100806.44;5076629;27;45342;-72
2022/10/20 08:41:41;;;;;;;;;4.00;4.00;;;;;25.31;48.61;100820.16;5076057;27;46234;-73
2022/10/20 08:44:07;;;;;;;;;3.00;3.00;;;;;25.26;48.26;100811.97;5092112;27;45474;-72
2022/10/20 08:46:38;;;;;;;;;4.00;4.00;;;;;25.22;48.51;100816.03;5076651;27;45286;-73
2022/10/20 08:49:10;;;;;;;;;3.33;3.33;;;;;25.18;48.78;100812.97;5076540;27;45428;-72
2022/10/20 08:51:37;;;;;;;;;3.67;3.00;;;;;25.14;48.69;100806.38;5076261;27;46183;-73
2022/10/20 08:54:10;;;;;;;;;2.67;2.00;;;;;25.09;48.64;100811.50;5076241;27;45509;-73
2022/10/20 08:56:36;;;;;;;;;3.00;3.00;;;;;24.96;48.88;100805.09;5076095;27;45876;-73
2022/10/20 08:59:02;;;;;;;;;3.33;3.33;;;;;25.02;48.81;100815.00;5076615;27;45758;-73
2022/10/20 09:01:33;;;;;;;;;3.00;3.00;;;;;25.00;48.82;100813.53;5076119;27;45762;-73
2022/10/20 09:04:22;;;;;;;;;4.00;2.67;;;;;24.97;49.00;100809.41;5076389;27;45389;-73
2022/10/20 09:06:54;;;;;;;;;3.00;3.00;;;;;24.94;48.81;100817.78;5064671;27;45484;-72
2022/10/20 09:09:22;;;;;;;;;5.00;5.00;;;;;24.93;48.89;100808.19;5075585;27;45496;-73
2022/10/20 09:11:48;;;;;;;;;4.00;3.00;;;;;24.89;48.99;100810.41;5075947;27;46665;-73
2022/10/20 09:14:15;;;;;;;;;3.00;3.00;;;;;24.88;49.11;100800.78;5075920;27;45254;-73
2022/10/20 09:16:42;;;;;;;;;5.00;3.00;;;;;24.87;48.93;100796.50;5076096;27;45378;-72
2022/10/20 09:19:19;;;;;;;;;5.67;3.67;;;;;24.84;49.10;100789.75;5076144;27;45500;-72
2022/10/20 09:21:51;;;;;;;;;3.33;3.00;;;;;24.84;49.22;100792.41;5075769;27;46336;-73
2022/10/20 09:24:19;;;;;;;;;4.33;4.33;;;;;24.83;49.23;100785.44;5075619;27;45382;-73
2022/10/20 09:26:47;;;;;;;;;4.00;3.67;;;;;24.82;48.97;100788.31;5075754;27;45461;-73
2022/10/20 09:29:14;;;;;;;;;4.00;2.00;;;;;24.81;49.25;100781.31;5076050;27;45513;-72
2022/10/20 09:31:54;;;;;;;;;3.67;3.67;;;;;24.81;49.24;100781.31;5075581;27;45361;-72
2022/10/20 09:34:19;;;;;;;;;2.00;2.00;;;;;24.79;49.28;100776.22;5063272;28;45431;-73
2022/10/20 09:36:45;;;;;;;;;3.00;3.00;;;;;24.79;49.22;100768.25;5075646;27;45503;-73
2022/10/20 09:39:22;;;;;;;;;4.00;4.00;;;;;24.67;49.15;100738.72;5075265;27;45538;-73
2022/10/20 09:41:49;;;;;;;;;3.33;2.00;;;;;24.79;49.25;100746.13;5075684;27;46045;-72
2022/10/20 09:44:22;;;;;;;;;3.00;3.00;;;;;24.68;49.46;100724.41;5075540;27;45288;-73
2022/10/20 09:46:50;;;;;;;;;3.00;2.00;;;;;24.73;49.05;100745.09;5075717;27;45429;-72
2022/10/20 09:49:37;;;;;;;;;4.67;4.67;;;;;24.80;49.41;100747.78;5075444;27;45420;-73
2022/10/20 09:52:15;;;;;;;;;3.00;3.00;;;;;24.80;48.98;100748.56;5075305;27;45399;-73
2022/10/20 09:54:46;;;;;;;;;3.33;3.33;;;;;24.80;49.17;100742.47;5075176;27;45470;-73
2022/10/20 09:57:18;;;;;;;;;0.67;0.67;;;;;24.79;49.18;100738.97;5075682;27;45348;-73
2022/10/20 09:59:45;;;;;;;;;3.67;2.33;;;;;24.80;49.29;100731.81;5075702;27;45830;-73
2022/10/20 10:02:13;;;;;;;;;2.33;2.00;;;;;24.80;49.25;100737.94;5075502;27;46317;-73
2022/10/20 10:04:45;;;;;;;;;2.33;2.33;;;;;24.80;49.59;100735.28;5075034;27;45461;-72
2022/10/20 10:07:26;;;;;;;;;5.00;3.67;;;;;24.80;49.27;100729.94;5075485;27;45241;-73
2022/10/20 10:09:55;;;;;;;;;2.00;2.00;;;;;24.81;49.21;100733.44;5061267;28;45472;-73
2022/10/20 10:12:23;;;;;;;;;3.67;3.00;;;;;24.80;49.25;100737.13;5075256;28;47648;-73
2022/10/20 10:14:58;;;;;;;;;2.67;2.67;;;;;24.79;49.40;100731.00;5075062;27;45854;-73
2022/10/20 10:17:30;;;;;;;;;2.33;2.33;;;;;24.70;49.23;100725.03;5075593;27;45454;-72
2022/10/20 10:19:56;;;;;;;;;2.00;2.00;;;;;24.74;49.31;100728.94;5078249;27;45298;-73
2022/10/20 10:22:21;;;;;;;;;4.00;2.00;;;;;24.79;49.52;100728.31;5078543;27;46193;-73
2022/10/20 10:24:48;;;;;;;;;3.00;3.00;;;;;24.80;49.24;100729.16;5078554;27;45338;-73
2022/10/20 10:27:18;;;;;;;;;4.00;3.00;;;;;24.80;49.33;100731.81;5078981;27;45406;-73
2022/10/20 10:29:44;;;;;;;;;2.67;2.67;;;;;24.70;49.03;100721.53;5078880;27;45364;-73
2022/10/20 10:32:27;;;;;;;;;3.00;3.00;;;;;24.71;49.51;100720.53;5074795;27;45629;-72
2022/10/20 10:35:10;;;;;;;;;3.67;2.00;;;;;24.80;49.12;100737.13;5070760;27;45379;-73
2022/10/20 10:37:38;;;;;;;;;3.00;2.00;;;;;24.80;49.25;100732.59;5077906;27;45326;-73
2022/10/20 10:40:17;;;;;;;;;2.67;2.67;;;;;24.80;49.32;100743.25;5078517;27;45524;-72
2022/10/20 10:43:00;;;;;;;;;2.00;2.00;;;;;24.79;49.23;100746.94;5078380;27;46910;-73
2022/10/20 10:45:44;;;;;;;;;4.00;3.00;;;;;24.76;49.22;100730.56;5078311;27;45413;-73
2022/10/20 10:48:25;;;;;;;;;2.00;2.00;;;;;24.79;49.22;100733.66;5078600;27;45363;-72
2022/10/20 10:51:00;;;;;;;;;2.00;2.00;;;;;24.79;49.38;100727.50;5077626;27;45398;-73
2022/10/20 10:53:46;;;;;;;;;2.00;2.00;;;;;24.78;49.27;100729.34;5094130;27;47508;-72
2022/10/20 10:56:30;;;;;;;;;3.00;3.00;;;;;24.74;49.29;100720.13;5078235;27;45311;-72
2022/10/20 10:59:11;;;;;;;;;2.33;2.33;;;;;24.78;49.22;100726.69;5078333;27;45262;-73
2022/10/20 11:01:54;;;;;;;;;2.67;2.67;;;;;24.77;49.37;100719.72;5078285;27;45311;-73
2022/10/20 11:05:00;;;;;;;;;3.67;3.00;;;;;24.79;49.40;100727.50;5078144;27;47377;-73
2022/10/20 11:07:41;;;;;;;;;3.00;2.00;;;;;24.76;49.20;100710.09;5075210;27;45422;-73
2022/10/20 11:10:40;;;;;;;;;2.67;2.00;;;;;24.76;49.16;100703.94;5075905;27;45450;-73
2022/10/20 11:13:17;;;;;;;;;1.67;1.67;;;;;24.74;49.16;100706.81;5075917;27;45465;-73
2022/10/20 11:15:54;;;;;;;;;1.33;1.33;;;;;24.74;49.68;100699.66;5075990;27;46269;-74
2022/10/20 11:18:44;;;;;;;;;4.00;4.00;;;;;24.74;49.31;100689.03;5075593;27;45846;-73
2022/10/20 11:21:22;;;;;;;;;3.00;2.67;;;;;24.75;49.26;100697.81;5075235;27;45408;-73
2022/10/20 11:24:08;;;;;;;;;3.00;3.00;;;;;24.74;49.19;100705.00;5075950;27;45507;-73
2022/10/20 11:26:37;;;;;;;;;3.67;2.00;;;;;24.66;49.22;100685.72;5075607;27;46315;-74
2022/10/20 11:29:09;;;;;;;;;2.00;2.00;;;;;24.73;49.27;100689.22;5075485;27;45470;-73
2022/10/20 11:31:55;;;;;;;;;4.33;3.00;;;;;24.74;49.24;100691.69;5074506;27;45313;-73
2022/10/20 11:34:35;;;;;;;;;2.00;2.00;;;;;24.73;49.21;100687.38;5075296;27;45463;-73